Time;durP1;ratioP1;P1;durP2;ratioP2;P2;SDS_P1;SDS_P2;PMS_P1;PMS_P2;Temp;Humidity;BMP_temperature;BMP_pressure;BME280_temperature;BME280_humidity;BME280_pressure;Samples;Min_cycle;Max_cycle;Signal;HPM_P1;HPM_P2
2022/03/10 00:01:46;;;;;;;;;;;;;;;0.68;64.44;102304.85;1672808;85;20290;-77
2022/03/10 00:04:12;;;;;;;;;;;;;;;0.65;64.49;102307.23;1690123;84;20156;-76
2022/03/10 00:06:38;;;;;;;;;;;;;;;0.63;64.48;102310.11;1674871;84;20246;-77
2022/03/10 00:09:04;;;;;;;;;;;;;;;0.62;64.45;102310.91;1672554;85;20199;-77
2022/03/10 00:11:30;;;;;;;;;;;;;;;0.58;64.29;102316.62;1672980;85;20330;-78
2022/03/10 00:13:56;;;;;;;;;;;;;;;0.53;64.25;102317.66;1697914;84;20148;-77
2022/03/10 00:16:22;;;;;;;;;;;;;;;0.47;64.23;102321.19;1700670;83;20375;-77
2022/03/10 00:18:56;;;;;;;;;;;;;;;0.38;64.23;102318.16;1675644;83;20204;-77
2022/03/10 00:21:22;;;;;;;;;;;;;;;0.34;64.21;102318.80;1672678;85;20547;-77
2022/03/10 00:23:48;;;;;;;;;;;;;;;0.30;64.40;102325.39;1672795;85;20147;-77
2022/03/10 00:26:16;;;;;;;;;;;;;;;0.25;64.32;102325.94;1672653;85;20259;-77
2022/03/10 00:28:42;;;;;;;;;;;;;;;0.19;64.37;102327.77;1697456;84;20180;-77
2022/03/10 00:31:08;;;;;;;;;;;;;;;0.17;64.47;102330.62;1700852;84;20320;-77
2022/03/10 00:33:34;;;;;;;;;;;;;;;0.15;64.39;102328.78;1673673;84;20154;-77
2022/03/10 00:35:59;;;;;;;;;;;;;;;0.12;64.37;102333.70;1672708;84;20182;-77
2022/03/10 00:38:25;;;;;;;;;;;;;;;0.08;64.43;102332.67;1672885;85;20190;-77
2022/03/10 00:40:51;;;;;;;;;;;;;;;0.06;64.41;102329.56;1685204;84;20224;-77
2022/03/10 00:43:17;;;;;;;;;;;;;;;0.03;64.50;102334.09;1684605;84;20231;-77
2022/03/10 00:45:43;;;;;;;;;;;;;;;0.02;64.51;102335.27;1700485;84;20183;-77
2022/03/10 00:48:11;;;;;;;;;;;;;;;0.01;64.60;102343.30;1691446;84;20502;-77
2022/03/10 00:50:37;;;;;;;;;;;;;;;0.02;64.68;102341.63;1672594;84;20806;-77
2022/03/10 00:53:03;;;;;;;;;;;;;;;0.03;64.68;102348.47;1674777;85;20108;-76
2022/03/10 00:55:29;;;;;;;;;;;;;;;0.03;64.83;102354.83;1674888;85;20128;-77
2022/03/10 00:57:55;;;;;;;;;;;;;;;0.04;64.88;102356.58;1676635;84;20143;-77
2022/03/10 01:00:28;;;;;;;;;;;;;;;0.05;64.97;102356.66;1676900;84;20151;-77
2022/03/10 01:02:51;;;;;;;;;;;;;;;0.08;65.13;102358.09;1696082;82;20440;-77
2022/03/10 01:05:17;;;;;;;;;;;;;;;0.13;65.47;102354.53;1674891;85;20751;-76
2022/03/10 01:07:43;;;;;;;;;;;;;;;0.19;65.76;102349.78;1676176;84;20186;-77
2022/03/10 01:10:09;;;;;;;;;;;;;;;0.23;65.76;102358.05;1686494;84;20173;-77
2022/03/10 01:12:41;;;;;;;;;;;;;;;0.26;65.81;102354.41;1703335;84;20408;-77
2022/03/10 01:15:06;;;;;;;;;;;;;;;0.29;65.72;102362.20;1693454;82;20096;-77
2022/03/10 01:17:32;;;;;;;;;;;;;;;0.34;65.90;102364.59;1685879;84;20107;-77
2022/03/10 01:19:58;;;;;;;;;;;;;;;0.35;65.73;102366.74;1674891;85;20230;-77
2022/03/10 01:22:24;;;;;;;;;;;;;;;0.37;65.78;102364.76;1688524;84;20132;-77
2022/03/10 01:24:50;;;;;;;;;;;;;;;0.37;65.75;102368.58;1673078;84;20853;-77
2022/03/10 01:27:16;;;;;;;;;;;;;;;0.38;65.95;102369.05;1672865;85;20174;-77
2022/03/10 01:29:42;;;;;;;;;;;;;;;0.43;66.13;102372.72;1672581;85;20184;-77
2022/03/10 01:32:08;;;;;;;;;;;;;;;0.48;66.21;102377.66;1674131;84;20206;-77
2022/03/10 01:34:34;;;;;;;;;;;;;;;0.54;66.12;102378.34;1673101;84;20207;-77
2022/03/10 01:37:00;;;;;;;;;;;;;;;0.57;65.99;102378.51;1672978;85;20782;-77
2022/03/10 01:39:26;;;;;;;;;;;;;;;0.56;65.87;102376.76;1672643;84;20936;-77
2022/03/10 01:41:52;;;;;;;;;;;;;;;0.55;65.88;102384.79;1672654;85;20243;-77
2022/03/10 01:44:20;;;;;;;;;;;;;;;0.54;65.81;102387.25;1673144;85;20214;-77
2022/03/10 01:46:46;;;;;;;;;;;;;;;0.51;65.72;102388.40;1690357;84;20133;-77
2022/03/10 01:49:12;;;;;;;;;;;;;;;0.49;65.80;102394.68;1692135;84;20504;-77
2022/03/10 01:51:38;;;;;;;;;;;;;;;0.49;65.94;102401.04;1674122;84;20816;-77
2022/03/10 01:54:05;;;;;;;;;;;;;;;0.49;65.93;102404.86;1672796;84;20135;-77
2022/03/10 01:56:32;;;;;;;;;;;;;;;0.50;65.99;102407.01;1672787;84;20589;-77
2022/03/10 01:58:59;;;;;;;;;;;;;;;0.50;66.45;102404.06;1674153;85;20187;-77
2022/03/10 02:01:25;;;;;;;;;;;;;;;0.57;66.49;102409.05;1673637;84;20148;-77
2022/03/10 02:03:52;;;;;;;;;;;;;;;0.63;66.58;102401.34;1680244;82;20517;-77
2022/03/10 02:06:18;;;;;;;;;;;;;;;0.64;66.32;102399.67;1672669;85;20139;-77
2022/03/10 02:11:29;;;;;;;;;;;;;;;0.62;66.19;102403.81;1683098;84;20514;-77
2022/03/10 02:13:55;;;;;;;;;;;;;;;0.62;66.21;102403.41;1672842;84;20778;-77
2022/03/10 02:19:05;;;;;;;;;;;;;;;0.64;66.26;102405.64;1675652;84;20478;-77
2022/03/10 02:21:32;;;;;;;;;;;;;;;0.62;66.40;102405.08;1672482;85;20556;-77
2022/03/10 02:23:57;;;;;;;;;;;;;;;0.69;66.78;102407.55;1674885;84;20542;-77
2022/03/10 02:26:23;;;;;;;;;;;;;;;0.73;66.95;102407.80;1680795;84;20185;-77
2022/03/10 02:28:50;;;;;;;;;;;;;;;0.82;67.13;102403.59;1701010;83;20846;-77
2022/03/10 02:31:15;;;;;;;;;;;;;;;0.87;67.15;102411.95;1700869;84;20181;-78
2022/03/10 02:33:41;;;;;;;;;;;;;;;0.92;67.25;102419.43;1700177;84;20243;-78
2022/03/10 02:36:07;;;;;;;;;;;;;;;0.97;67.22;102412.03;1700825;84;20511;-78
2022/03/10 02:38:33;;;;;;;;;;;;;;;0.99;67.23;102418.08;1691515;84;20806;-77
2022/03/10 02:40:59;;;;;;;;;;;;;;;1.02;67.26;102423.33;1698292;84;21193;-77
2022/03/10 02:43:25;;;;;;;;;;;;;;;1.05;67.41;102418.75;1687354;83;20200;-77
2022/03/10 02:45:51;;;;;;;;;;;;;;;1.10;67.44;102431.33;1674783;84;20857;-77
2022/03/10 02:48:18;;;;;;;;;;;;;;;1.11;67.49;102423.77;1674997;84;20448;-78
2022/03/10 02:50:53;;;;;;;;;;;;;;;1.15;67.43;102432.45;1674971;85;20099;-78
2022/03/10 02:53:19;;;;;;;;;;;;;;;1.18;67.42;102432.60;1675017;85;20727;-77
2022/03/10 02:55:45;;;;;;;;;;;;;;;1.18;67.46;102432.20;1676229;84;20818;-77
2022/03/10 02:58:17;;;;;;;;;;;;;;;1.19;67.45;102439.45;1674890;84;20447;-77
2022/03/10 03:00:43;;;;;;;;;;;;;;;1.19;67.45;102447.97;1675070;85;20801;-77
2022/03/10 03:03:09;;;;;;;;;;;;;;;1.19;67.61;102449.24;1674054;84;20415;-77
2022/03/10 03:05:36;;;;;;;;;;;;;;;1.20;67.72;102450.13;1672609;84;20108;-77
2022/03/10 03:08:02;;;;;;;;;;;;;;;1.18;67.59;102453.86;1670484;85;20790;-77
2022/03/10 03:10:28;;;;;;;;;;;;;;;1.18;67.69;102447.49;1672564;84;20195;-77
2022/03/10 03:12:54;;;;;;;;;;;;;;;1.20;67.84;102453.94;1691443;84;20742;-77
2022/03/10 03:15:21;;;;;;;;;;;;;;;1.23;67.91;102461.74;1671195;84;20216;-76
2022/03/10 03:17:47;;;;;;;;;;;;;;;1.24;67.77;102459.67;1682894;84;20239;-77
2022/03/10 03:20:14;;;;;;;;;;;;;;;1.21;67.71;102463.34;1670704;85;20196;-77
2022/03/10 03:22:42;;;;;;;;;;;;;;;1.21;67.84;102467.16;1670694;85;20474;-77
2022/03/10 03:25:10;;;;;;;;;;;;;;;1.21;67.75;102464.21;1677093;84;20436;-78
2022/03/10 03:27:35;;;;;;;;;;;;;;;1.20;67.87;102463.73;1670730;84;20603;-78
2022/03/10 03:30:02;;;;;;;;;;;;;;;1.19;67.85;102465.80;1670770;84;20242;-77
2022/03/10 03:32:28;;;;;;;;;;;;;;;1.22;68.01;102470.19;1675546;84;20475;-77
2022/03/10 03:34:53;;;;;;;;;;;;;;;1.21;67.88;102469.30;1656951;85;20301;-77
2022/03/10 03:37:19;;;;;;;;;;;;;;;1.21;67.74;102474.80;1670596;85;20190;-77
2022/03/10 03:39:51;;;;;;;;;;;;;;;1.19;67.77;102471.30;1670733;84;20200;-77
2022/03/10 03:42:16;;;;;;;;;;;;;;;1.15;67.81;102468.98;1679983;83;20489;-78
2022/03/10 03:44:42;;;;;;;;;;;;;;;1.14;67.85;102477.43;1698325;84;20863;-78
2022/03/10 03:47:08;;;;;;;;;;;;;;;1.14;67.83;102479.98;1695510;84;20157;-78
2022/03/10 03:49:34;;;;;;;;;;;;;;;1.13;67.92;102485.87;1676491;84;20207;-78
2022/03/10 03:51:59;;;;;;;;;;;;;;;1.08;67.87;102480.93;1670322;85;20301;-77
2022/03/10 03:54:26;;;;;;;;;;;;;;;1.12;67.87;102497.25;1678297;83;20240;-76
2022/03/10 03:56:52;;;;;;;;;;;;;;;1.09;67.89;102494.55;1692393;83;430873;-77
2022/03/10 03:59:20;;;;;;;;;;;;;;;1.08;67.95;102502.58;1677885;84;20237;-76
2022/03/10 04:01:47;;;;;;;;;;;;;;;1.08;67.98;102501.70;1668481;84;20219;-76
2022/03/10 04:04:13;;;;;;;;;;;;;;;1.07;68.01;102512.69;1668635;85;20123;-77
2022/03/10 04:06:38;;;;;;;;;;;;;;;1.08;68.13;102506.80;1675925;84;20148;-77
2022/03/10 04:09:04;;;;;;;;;;;;;;;1.09;68.04;102514.52;1680511;84;20275;-76
2022/03/10 04:11:30;;;;;;;;;;;;;;;1.08;67.95;102522.09;1695445;84;20261;-77
2022/03/10 04:13:56;;;;;;;;;;;;;;;1.04;68.00;102523.59;1695391;84;20204;-77
2022/03/10 04:16:21;;;;;;;;;;;;;;;1.02;67.85;102519.24;1687108;84;20214;-78
2022/03/10 04:18:48;;;;;;;;;;;;;;;0.99;67.69;102530.14;1668407;84;20140;-77
2022/03/10 04:21:13;;;;;;;;;;;;;;;0.98;67.79;102537.30;1678825;84;20192;-77
2022/03/10 04:23:39;;;;;;;;;;;;;;;0.95;67.76;102543.11;1696780;84;20228;-77
2022/03/10 04:26:05;;;;;;;;;;;;;;;0.93;67.84;102538.73;1697062;84;20199;-77
2022/03/10 04:28:33;;;;;;;;;;;;;;;0.91;67.84;102545.41;1673316;84;20108;-77
2022/03/10 04:30:59;;;;;;;;;;;;;;;0.86;67.82;102545.55;1672286;84;20182;-77
2022/03/10 04:33:25;;;;;;;;;;;;;;;0.82;67.86;102556.37;1682516;84;20219;-77
2022/03/10 04:35:55;;;;;;;;;;;;;;;0.78;67.86;102557.87;1674211;84;20108;-77
2022/03/10 04:38:21;;;;;;;;;;;;;;;0.74;67.80;102558.49;1671011;86;20124;-77
2022/03/10 04:40:47;;;;;;;;;;;;;;;0.70;67.87;102560.78;1678968;84;20469;-76
2022/03/10 04:43:12;;;;;;;;;;;;;;;0.66;67.86;102571.19;1683521;84;20160;-76
2022/03/10 04:45:38;;;;;;;;;;;;;;;0.61;67.82;102572.20;1694976;84;20180;-77
2022/03/10 04:48:06;;;;;;;;;;;;;;;0.57;67.88;102580.86;1699182;84;20177;-76
2022/03/10 04:50:33;;;;;;;;;;;;;;;0.53;67.85;102586.57;1679835;84;20128;-77
2022/03/10 04:52:59;;;;;;;;;;;;;;;0.49;67.98;102585.55;1670840;84;20112;-77
2022/03/10 04:55:24;;;;;;;;;;;;;;;0.47;67.96;102593.50;1671231;84;20155;-77
2022/03/10 04:57:50;;;;;;;;;;;;;;;0.45;67.94;102590.38;1697635;84;20211;-77
2022/03/10 05:00:18;;;;;;;;;;;;;;;0.41;67.91;102595.69;1674607;84;20100;-77
2022/03/10 05:02:45;;;;;;;;;;;;;;;0.37;67.95;102600.13;1690718;84;20125;-77
2022/03/10 05:05:12;;;;;;;;;;;;;;;0.33;67.87;102608.38;1697866;84;20094;-78
2022/03/10 05:07:39;;;;;;;;;;;;;;;0.30;67.85;102614.55;1692130;84;20124;-78
2022/03/10 05:10:12;;;;;;;;;;;;;;;0.26;67.91;102616.44;1675416;84;1889044;-77
2022/03/10 05:12:49;;;;;;;;;;;;;;;0.21;67.84;102619.11;1691462;84;20523;-73
2022/03/10 05:15:21;;;;;;;;;;;;;;;0.17;68.00;102626.08;1693823;84;20106;-73
2022/03/10 05:17:47;;;;;;;;;;;;;;;0.12;67.96;102630.02;1696765;83;20125;-73
2022/03/10 05:20:14;;;;;;;;;;;;;;;0.07;67.83;102639.92;1697147;84;20225;-73
2022/03/10 05:22:52;;;;;;;;;;;;;;;0.06;67.75;102639.83;1692006;84;20130;-75
2022/03/10 05:25:19;;;;;;;;;;;;;;;0.03;67.86;102640.92;1695575;84;20188;-75
2022/03/10 05:27:46;;;;;;;;;;;;;;;0.00;67.84;102639.11;1694201;83;20102;-75
2022/03/10 05:30:13;;;;;;;;;;;;;;;-0.01;67.93;102639.89;1689062;81;128398;-76
2022/03/10 05:32:39;;;;;;;;;;;;;;;-0.04;67.84;102647.34;1725926;81;20203;-76
2022/03/10 05:35:06;;;;;;;;;;;;;;;-0.07;68.00;102646.77;1724422;81;20502;-76
2022/03/10 05:37:37;;;;;;;;;;;;;;;-0.08;68.03;102653.03;1723302;82;20123;-75
2022/03/10 05:40:09;;;;;;;;;;;;;;;-0.10;68.00;102654.20;1726269;81;20205;-75
2022/03/10 05:42:37;;;;;;;;;;;;;;;-0.10;68.01;102659.69;1704270;82;20153;-75
2022/03/10 05:45:03;;;;;;;;;;;;;;;-0.10;68.00;102658.41;1700390;83;20125;-75
2022/03/10 05:47:29;;;;;;;;;;;;;;;-0.12;68.02;102658.32;1709619;83;20212;-75
2022/03/10 05:49:55;;;;;;;;;;;;;;;-0.11;68.13;102661.74;1714477;82;20171;-76
2022/03/10 05:52:27;;;;;;;;;;;;;;;-0.09;68.13;102666.53;1719574;81;20425;-73
2022/03/10 05:54:53;;;;;;;;;;;;;;;-0.05;68.17;102671.89;1719017;82;20174;-74
2022/03/10 05:57:20;;;;;;;;;;;;;;;0.01;68.23;102672.62;1715893;83;20218;-74
2022/03/10 05:59:48;;;;;;;;;;;;;;;0.10;68.27;102679.53;1703532;82;20325;-73
2022/03/10 06:02:17;;;;;;;;;;;;;;;0.21;68.09;102676.34;1718757;82;20210;-74
2022/03/10 06:04:44;;;;;;;;;;;;;;;0.35;68.35;102679.31;1677818;82;20337;-73
2022/03/10 06:07:10;;;;;;;;;;;;;;;0.52;68.21;102685.38;1721679;81;20708;-73
2022/03/10 06:09:36;;;;;;;;;;;;;;;0.67;68.26;102683.69;1715040;82;20115;-73
2022/03/10 06:12:02;;;;;;;;;;;;;;;0.86;68.23;102693.26;1728533;82;20174;-73
2022/03/10 06:14:28;;;;;;;;;;;;;;;1.04;68.03;102688.33;1709453;82;20092;-73
2022/03/10 06:16:54;;;;;;;;;;;;;;;1.21;68.15;102688.44;1706235;82;20206;-74
2022/03/10 06:19:20;;;;;;;;;;;;;;;1.38;68.07;102698.28;1702221;82;20104;-74
2022/03/10 06:21:47;;;;;;;;;;;;;;;1.56;68.16;102700.53;1721304;82;20118;-74
2022/03/10 06:24:13;;;;;;;;;;;;;;;1.76;67.99;102699.05;1723513;81;20878;-74
2022/03/10 06:26:39;;;;;;;;;;;;;;;1.91;67.99;102702.81;1714106;81;20196;-73
2022/03/10 06:29:05;;;;;;;;;;;;;;;2.06;68.00;102712.55;1709590;81;20119;-74
2022/03/10 06:31:32;;;;;;;;;;;;;;;2.23;67.85;102719.77;1708601;81;20387;-74
2022/03/10 06:33:58;;;;;;;;;;;;;;;2.38;67.94;102720.95;1713769;81;20127;-74
2022/03/10 06:36:26;;;;;;;;;;;;;;;2.55;67.98;102717.59;1711200;81;20104;-74
2022/03/10 06:38:53;;;;;;;;;;;;;;;2.73;67.93;102726.54;1722798;81;20099;-74
2022/03/10 06:41:19;;;;;;;;;;;;;;;2.91;67.79;102722.34;1707997;81;20131;-74
2022/03/10 06:43:45;;;;;;;;;;;;;;;3.01;67.74;102727.50;1718609;81;20189;-74
2022/03/10 06:46:11;;;;;;;;;;;;;;;3.15;67.72;102732.45;1712034;81;20201;-74
2022/03/10 06:48:38;;;;;;;;;;;;;;;3.27;67.74;102743.66;1718744;81;20155;-74
2022/03/10 06:51:04;;;;;;;;;;;;;;;3.39;67.75;102742.97;1715865;81;20258;-74
2022/03/10 06:53:30;;;;;;;;;;;;;;;3.49;67.76;102751.55;1716490;81;20457;-74
2022/03/10 06:55:56;;;;;;;;;;;;;;;3.54;67.50;102755.61;1716336;81;20166;-74
2022/03/10 06:58:21;;;;;;;;;;;;;;;3.52;67.61;102758.50;1716220;81;20222;-74
2022/03/10 07:00:47;;;;;;;;;;;;;;;3.52;67.71;102763.20;1713186;81;20099;-74
2022/03/10 07:03:14;;;;;;;;;;;;;;;3.54;67.75;102763.28;1721499;81;20103;-74
2022/03/10 07:05:40;;;;;;;;;;;;;;;3.66;67.93;102767.25;1717552;81;20151;-74
2022/03/10 07:08:06;;;;;;;;;;;;;;;3.93;67.98;102771.90;1725714;81;20415;-74
2022/03/10 07:10:33;;;;;;;;;;;;;;;4.29;67.88;102776.48;1714453;81;20123;-73
2022/03/10 07:12:59;;;;;;;;;;;;;;;4.45;67.46;102778.04;1725377;81;20130;-74
2022/03/10 07:15:25;;;;;;;;;;;;;;;4.57;67.54;102772.17;1717022;81;20158;-74
2022/03/10 07:17:50;;;;;;;;;;;;;;;4.68;67.51;102776.03;1717576;81;20103;-74
2022/03/10 07:20:18;;;;;;;;;;;;;;;4.69;67.48;102762.41;1704182;81;20408;-74
2022/03/10 07:22:47;;;;;;;;;;;;;;;4.72;67.08;102777.05;1707352;81;20839;-74
2022/03/10 07:25:13;;;;;;;;;;;;;;;4.74;67.26;102779.27;1719750;81;20124;-74
2022/03/10 07:27:41;;;;;;;;;;;;;;;4.87;67.66;102778.97;1707240;81;20143;-74
2022/03/10 07:30:08;;;;;;;;;;;;;;;4.99;67.52;102791.02;1712716;81;20227;-74
2022/03/10 07:32:35;;;;;;;;;;;;;;;5.05;67.35;102788.72;1713902;81;20431;-74
2022/03/10 07:35:01;;;;;;;;;;;;;;;5.14;67.26;102789.50;1715363;81;20091;-74
2022/03/10 07:37:27;;;;;;;;;;;;;;;5.20;67.05;102785.47;1701894;81;20422;-74
2022/03/10 07:39:53;;;;;;;;;;;;;;;5.24;67.40;102789.91;1719069;81;20209;-74
2022/03/10 07:42:19;;;;;;;;;;;;;;;5.28;67.29;102789.63;1645216;81;5000715;-74
2022/03/10 07:44:44;;;;;;;;;;;;;;;5.32;67.32;102793.66;1705328;82;20091;-74
2022/03/10 07:47:10;;;;;;;;;;;;;;;5.40;67.12;102796.53;1720176;82;20157;-74
2022/03/10 07:49:40;;;;;;;;;;;;;;;5.54;67.15;102799.66;1703371;82;20110;-74
2022/03/10 07:52:07;;;;;;;;;;;;;;;5.73;67.20;102794.39;1711963;82;20184;-74
2022/03/10 07:54:33;;;;;;;;;;;;;;;5.93;67.08;102794.78;1695180;82;20413;-74
2022/03/10 07:56:59;;;;;;;;;;;;;;;6.09;67.10;102792.39;1715309;82;20106;-73
2022/03/10 07:59:25;;;;;;;;;;;;;;;6.22;66.72;102796.29;1711180;82;20224;-74
2022/03/10 08:01:51;;;;;;;;;;;;;;;6.11;66.81;102806.58;1728783;82;20158;-74
2022/03/10 08:04:16;;;;;;;;;;;;;;;5.84;67.01;102794.81;1693762;82;20154;-74
2022/03/10 08:06:42;;;;;;;;;;;;;;;5.76;67.12;102799.65;1693080;83;20155;-74
2022/03/10 08:09:10;;;;;;;;;;;;;;;5.88;67.43;102805.25;1699972;83;20094;-74
2022/03/10 08:11:38;;;;;;;;;;;;;;;5.85;67.36;102797.84;1697770;83;20129;-74
2022/03/10 08:14:04;;;;;;;;;;;;;;;5.75;67.33;102806.00;1684824;83;20452;-74
2022/03/10 08:16:31;;;;;;;;;;;;;;;5.59;66.93;102816.11;1707054;82;20104;-74
2022/03/10 08:18:58;;;;;;;;;;;;;;;5.48;66.34;102812.23;1692600;82;20098;-74
2022/03/10 08:21:24;;;;;;;;;;;;;;;5.36;66.76;102816.87;1698423;83;20096;-74
2022/03/10 08:23:50;;;;;;;;;;;;;;;5.39;66.83;102821.72;1704611;83;20134;-74
2022/03/10 08:26:17;;;;;;;;;;;;;;;5.35;66.39;102823.70;1707986;83;20142;-74
2022/03/10 08:28:51;;;;;;;;;;;;;;;5.25;66.05;102827.57;1687220;83;20410;-74
2022/03/10 08:31:13;;;;;;;;;;;;;;;5.20;66.43;102822.66;1643045;85;20322;-74
2022/03/10 08:33:39;;;;;;;;;;;;;;;5.27;66.60;102825.07;1638268;86;20629;-74
2022/03/10 08:36:06;;;;;;;;;;;;;;;5.23;65.85;102834.33;1636090;86;20170;-74
2022/03/10 08:38:32;;;;;;;;;;;;;;;5.04;65.47;102830.55;1643379;86;20434;-74
2022/03/10 08:40:59;;;;;;;;;;;;;;;4.92;65.72;102834.75;1632826;86;20509;-74
2022/03/10 08:43:28;;;;;;;;;;;;;;;4.86;65.59;102828.48;1636873;86;20139;-74
2022/03/10 08:45:52;;;;;;;;;;;;;;;4.87;65.45;102831.52;1633306;86;20130;-74
2022/03/10 08:48:18;;;;;;;;;;;;;;;4.87;65.29;102831.12;1637351;86;20449;-74
2022/03/10 08:50:44;;;;;;;;;;;;;;;4.76;64.51;102827.22;1633353;86;20173;-74
2022/03/10 08:53:11;;;;;;;;;;;;;;;4.60;64.81;102837.64;1636361;86;20119;-74
2022/03/10 08:55:39;;;;;;;;;;;;;;;4.49;64.75;102840.13;1635371;86;20158;-74
2022/03/10 08:58:05;;;;;;;;;;;;;;;4.40;64.61;102840.59;1635581;86;20165;-73
2022/03/10 09:00:31;;;;;;;;;;;;;;;4.24;64.50;102841.98;1633414;86;20118;-74
2022/03/10 09:02:57;;;;;;;;;;;;;;;4.14;64.41;102841.13;1635868;86;20173;-73
2022/03/10 09:05:22;;;;;;;;;;;;;;;4.06;64.22;102839.89;1634783;86;20127;-73
2022/03/10 09:07:49;;;;;;;;;;;;;;;4.00;64.15;102837.92;1640148;86;20171;-73
2022/03/10 09:10:15;;;;;;;;;;;;;;;3.95;63.97;102841.55;1649405;86;20407;-73
2022/03/10 09:12:41;;;;;;;;;;;;;;;3.91;63.68;102842.21;1641910;86;20134;-73
2022/03/10 09:15:08;;;;;;;;;;;;;;;3.90;63.63;102840.86;1650332;85;20096;-73
2022/03/10 09:17:34;;;;;;;;;;;;;;;3.82;63.44;102846.89;1647163;85;20380;-73
2022/03/10 09:20:00;;;;;;;;;;;;;;;3.71;63.49;102833.99;1646055;85;20138;-73
2022/03/10 09:22:26;;;;;;;;;;;;;;;3.71;63.66;102835.67;1644093;85;20173;-73
2022/03/10 09:24:52;;;;;;;;;;;;;;;3.72;63.76;102830.63;1652824;85;20163;-73
2022/03/10 09:27:18;;;;;;;;;;;;;;;3.72;63.45;102836.15;1642266;85;20118;-73
2022/03/10 09:29:44;;;;;;;;;;;;;;;3.73;63.54;102838.78;1645696;85;20196;-73
2022/03/10 09:32:11;;;;;;;;;;;;;;;3.71;63.41;102837.83;1644891;85;20134;-73
2022/03/10 09:34:37;;;;;;;;;;;;;;;3.69;63.03;102836.00;1647694;85;20118;-73
2022/03/10 09:37:03;;;;;;;;;;;;;;;3.66;63.02;102835.45;1653769;85;20814;-74
2022/03/10 09:39:29;;;;;;;;;;;;;;;3.65;63.10;102835.86;1640421;85;20136;-73
2022/03/10 09:41:56;;;;;;;;;;;;;;;3.69;62.96;102836.87;1651803;85;20662;-73
2022/03/10 09:44:22;;;;;;;;;;;;;;;3.73;62.73;102840.46;1644890;85;20121;-73
2022/03/10 09:46:50;;;;;;;;;;;;;;;3.76;62.68;102847.00;1632933;85;20124;-73
2022/03/10 09:49:21;;;;;;;;;;;;;;;3.76;62.65;102844.05;1645847;85;20131;-73
2022/03/10 09:51:49;;;;;;;;;;;;;;;3.78;62.58;102848.83;1635682;85;20108;-73
2022/03/10 09:54:16;;;;;;;;;;;;;;;3.78;62.36;102847.95;1634564;85;20105;-73
2022/03/10 09:56:43;;;;;;;;;;;;;;;3.79;62.06;102840.34;1632031;85;20100;-73
2022/03/10 09:59:09;;;;;;;;;;;;;;;3.81;62.05;102838.74;1645971;85;20141;-74
2022/03/10 10:01:35;;;;;;;;;;;;;;;3.87;62.20;102830.08;1638509;85;20421;-73
2022/03/10 10:04:01;;;;;;;;;;;;;;;3.86;61.55;102835.12;1645308;85;20175;-73
2022/03/10 10:06:27;;;;;;;;;;;;;;;3.82;60.91;102841.78;1634105;85;20213;-73
2022/03/10 10:08:56;;;;;;;;;;;;;;;3.82;61.66;102847.30;1645874;85;20174;-73
2022/03/10 10:11:34;;;;;;;;;;;;;;;3.80;61.18;102853.63;1636911;85;20218;-73
2022/03/10 10:14:00;;;;;;;;;;;;;;;3.78;61.06;102849.23;1622512;87;21204;-74
2022/03/10 10:16:26;;;;;;;;;;;;;;;3.84;61.61;102845.69;1621561;87;20143;-73
2022/03/10 10:18:56;;;;;;;;;;;;;;;3.92;60.99;102848.20;1645548;85;20204;-73
2022/03/10 10:21:23;;;;;;;;;;;;;;;3.96;61.07;102848.42;1694415;82;20129;-73
2022/03/10 10:23:51;;;;;;;;;;;;;;;3.98;61.11;102842.97;1701696;82;20125;-73
2022/03/10 10:26:18;;;;;;;;;;;;;;;4.04;60.88;102849.19;1693820;82;20104;-73
2022/03/10 10:28:47;;;;;;;;;;;;;;;4.10;61.03;102843.06;1715244;82;20095;-74
2022/03/10 10:31:17;;;;;;;;;;;;;;;4.12;60.60;102840.17;1712663;82;20169;-73
2022/03/10 10:33:56;;;;;;;;;;;;;;;4.16;60.71;102837.80;1699127;82;20106;-73
2022/03/10 10:36:24;;;;;;;;;;;;;;;4.20;60.49;102842.66;1695664;82;20424;-73
2022/03/10 10:38:55;;;;;;;;;;;;;;;4.18;60.35;102840.42;1730809;82;20107;-73
2022/03/10 10:41:26;;;;;;;;;;;;;;;4.21;60.49;102841.44;1690973;82;20098;-73
2022/03/10 10:43:55;;;;;;;;;;;;;;;4.25;60.39;102848.45;1652587;85;20393;-74
2022/03/10 10:46:32;;;;;;;;;;;;;;;4.30;60.73;102832.02;1640146;86;20132;-73
2022/03/10 10:49:02;;;;;;;;;;;;;;;4.34;60.55;102832.63;1641285;86;20088;-73
2022/03/10 10:51:30;;;;;;;;;;;;;;;4.37;60.48;102838.30;1640389;85;20591;-73
2022/03/10 10:53:57;;;;;;;;;;;;;;;4.41;60.35;102832.10;1624879;87;20576;-73
2022/03/10 10:56:23;;;;;;;;;;;;;;;4.41;60.39;102835.94;1627342;86;20513;-73
2022/03/10 10:58:52;;;;;;;;;;;;;;;4.50;60.16;102834.20;1648585;86;20102;-73
2022/03/10 11:01:33;;;;;;;;;;;;;;;4.61;60.50;102830.42;1631818;86;20107;-73
2022/03/10 11:04:00;;;;;;;;;;;;;;;4.69;60.30;102834.57;1644561;86;20099;-73
2022/03/10 11:06:26;;;;;;;;;;;;;;;4.74;60.30;102836.92;1636018;87;20111;-73
2022/03/10 11:08:52;;;;;;;;;;;;;;;4.74;60.12;102830.12;1648328;85;20156;-73
2022/03/10 11:11:20;;;;;;;;;;;;;;;4.71;59.79;102832.95;1637773;85;20088;-73
2022/03/10 11:13:47;;;;;;;;;;;;;;;4.71;59.61;102837.67;1642813;85;20110;-73
2022/03/10 11:16:16;;;;;;;;;;;;;;;4.78;59.81;102837.53;1645517;85;20170;-73
2022/03/10 11:18:47;;;;;;;;;;;;;;;4.80;59.45;102834.63;1641778;85;20097;-73
2022/03/10 11:21:32;;;;;;;;;;;;;;;4.78;58.98;102836.25;1645063;85;20387;-73
2022/03/10 11:24:02;;;;;;;;;;;;;;;4.74;59.32;102839.09;1616247;85;38613;-73
2022/03/10 11:26:35;;;;;;;;;;;;;;;4.78;58.89;102846.09;1648548;85;20360;-73
2022/03/10 11:29:01;;;;;;;;;;;;;;;4.76;59.18;102838.75;1624056;85;20188;-73
2022/03/10 11:31:29;;;;;;;;;;;;;;;4.72;58.63;102835.58;1646087;85;20457;-74
2022/03/10 11:33:55;;;;;;;;;;;;;;;4.71;59.19;102836.39;1646958;85;20103;-73
2022/03/10 11:36:26;;;;;;;;;;;;;;;4.71;58.58;102842.80;1652908;85;20549;-73
2022/03/10 11:39:04;;;;;;;;;;;;;;;4.72;56.82;102841.98;1634709;85;20138;-73
2022/03/10 11:41:47;;;;;;;;;;;;;;;4.69;58.55;102835.85;1646192;85;20952;-73
2022/03/10 11:44:13;;;;;;;;;;;;;;;4.65;57.98;102841.28;1643252;85;20229;-73
2022/03/10 11:46:57;;;;;;;;;;;;;;;4.61;58.06;102838.98;1654328;85;20496;-73
2022/03/10 11:49:28;;;;;;;;;;;;;;;4.65;57.93;102840.88;1638841;85;20178;-73
2022/03/10 11:51:56;;;;;;;;;;;;;;;4.72;58.25;102850.08;1632785;85;20562;-73
2022/03/10 11:54:24;;;;;;;;;;;;;;;4.75;57.96;102834.84;1638075;85;20528;-73
2022/03/10 11:56:55;;;;;;;;;;;;;;;4.84;57.73;102837.80;1646964;85;20430;-73
2022/03/10 11:59:33;;;;;;;;;;;;;;;4.85;57.75;102836.98;1640004;85;20113;-73
2022/03/10 12:02:00;;;;;;;;;;;;;;;4.88;57.72;102834.55;1643866;85;20400;-73
2022/03/10 12:04:36;;;;;;;;;;;;;;;4.94;58.07;102837.38;1641468;85;20128;-74
2022/03/10 12:07:03;;;;;;;;;;;;;;;4.99;57.37;102830.36;1645554;85;20114;-74
2022/03/10 12:09:33;;;;;;;;;;;;;;;5.03;57.59;102828.80;1693824;82;20430;-73
2022/03/10 12:12:16;;;;;;;;;;;;;;;5.06;57.61;102828.05;1693348;82;20500;-73
2022/03/10 12:14:43;;;;;;;;;;;;;;;5.10;57.23;102826.97;1696202;82;20130;-73
2022/03/10 12:17:45;;;;;;;;;;;;;;;5.12;57.36;102823.19;1699788;82;20419;-73
2022/03/10 12:20:23;;;;;;;;;;;;;;;5.14;57.34;102822.84;1701048;82;20427;-73
2022/03/10 12:23:12;;;;;;;;;;;;;;;5.17;56.87;102816.16;1694172;82;20774;-73
2022/03/10 12:25:40;;;;;;;;;;;;;;;5.19;57.32;102830.32;1693282;82;20137;-73
2022/03/10 12:28:06;;;;;;;;;;;;;;;5.14;57.28;102821.56;1700331;82;20116;-73
2022/03/10 12:30:36;;;;;;;;;;;;;;;5.13;57.05;102818.52;1702511;82;20109;-73
2022/03/10 12:33:02;;;;;;;;;;;;;;;5.14;56.95;102816.02;1698299;82;20529;-73
2022/03/10 12:35:33;;;;;;;;;;;;;;;5.12;56.96;102811.64;1698306;82;20779;-73
2022/03/10 12:37:59;;;;;;;;;;;;;;;5.14;56.90;102813.46;1696146;82;20113;-73
2022/03/10 12:40:27;;;;;;;;;;;;;;;5.13;56.47;102810.42;1703732;82;20531;-73
2022/03/10 12:43:07;;;;;;;;;;;;;;;5.16;56.90;102814.40;1698406;82;20524;-73
2022/03/10 12:45:43;;;;;;;;;;;;;;;5.15;56.58;102809.20;1640929;85;20661;-73
2022/03/10 12:48:28;;;;;;;;;;;;;;;5.18;57.08;102795.23;1642356;85;20444;-73
2022/03/10 12:50:54;;;;;;;;;;;;;;;5.20;56.70;102804.70;1693700;82;20415;-75
2022/03/10 12:53:20;;;;;;;;;;;;;;;5.20;56.67;102800.02;1699628;82;20544;-76